Tisbury, United Kingdom
Current Conditions -  °F | °C
As of 8:50 AM on Friday 19 Dec 2014 (Local Time) from EGDM Reporting Station
Broken Clouds Broken Clouds  
Wind Chill:   Ceiling: 3000
Heat Index:   Visibility: 6mi
Dew Point:   Wind: 15mph
Humidity: 87%   Direction: 280°W
Pressure: 29.94"   Gusts: NA
Location:  51.06°N, 2.08°W
Report Text: EGDM 190850Z 28013KT 9999 SCT020 BKN030 09/07 Q1014 WHT BECMG FEW020 BLU
Loading
Personal Weather Stations






























Interactive Weather Map New forecast layout! Learn more

10-Day Weather Forecast

Advertisements
Track Severe Weather on mobile